sensor_id;sensor_type;location;lat;lon;timestamp;pressure;altitude;pressure_sealevel;temperature
15333;BMP180;7766;51.534;6.722;2023-04-06T00:00:14;101203.88;;;5.91
15333;BMP180;7766;51.534;6.722;2023-04-06T00:01:15;101205.78;;;5.89
15333;BMP180;7766;51.534;6.722;2023-04-06T00:02:16;101206.47;;;5.91
15333;BMP180;7766;51.534;6.722;2023-04-06T00:03:17;101197.94;;;5.89
15333;BMP180;7766;51.534;6.722;2023-04-06T00:04:18;101203.31;;;5.88
15333;BMP180;7766;51.534;6.722;2023-04-06T00:05:19;101198.22;;;5.86
15333;BMP180;7766;51.534;6.722;2023-04-06T00:06:21;101206.88;;;5.87
15333;BMP180;7766;51.534;6.722;2023-04-06T00:07:22;101201.00;;;5.85
15333;BMP180;7766;51.534;6.722;2023-04-06T00:08:23;101205.94;;;5.88
15333;BMP180;7766;51.534;6.722;2023-04-06T00:09:24;101201.00;;;5.85
15333;BMP180;7766;51.534;6.722;2023-04-06T00:10:25;101208.81;;;5.85
15333;BMP180;7766;51.534;6.722;2023-04-06T00:11:26;101201.00;;;5.85
15333;BMP180;7766;51.534;6.722;2023-04-06T00:12:27;101203.88;;;5.82
15333;BMP180;7766;51.534;6.722;2023-04-06T00:13:28;101200.31;;;5.83
15333;BMP180;7766;51.534;6.722;2023-04-06T00:14:29;101195.91;;;5.84
15333;BMP180;7766;51.534;6.722;2023-04-06T00:15:30;101192.22;;;5.86
15333;BMP180;7766;51.534;6.722;2023-04-06T00:16:31;101193.59;;;5.81
15333;BMP180;7766;51.534;6.722;2023-04-06T00:17:32;101190.16;;;5.80
15333;BMP180;7766;51.534;6.722;2023-04-06T00:18:34;101188.25;;;5.82
15333;BMP180;7766;51.534;6.722;2023-04-06T00:19:35;101188.25;;;5.82
15333;BMP180;7766;51.534;6.722;2023-04-06T00:20:36;101183.56;;;5.76
15333;BMP180;7766;51.534;6.722;2023-04-06T00:21:37;101190.16;;;5.80
15333;BMP180;7766;51.534;6.722;2023-04-06T00:22:38;101185.91;;;5.79
15333;BMP180;7766;51.534;6.722;2023-04-06T00:23:39;101187.97;;;5.76
15333;BMP180;7766;51.534;6.722;2023-04-06T00:24:40;101190.06;;;5.72
15333;BMP180;7766;51.534;6.722;2023-04-06T00:25:40;101188.41;;;5.71
15333;BMP180;7766;51.534;6.722;2023-04-06T00:26:41;101183.19;;;5.71
15333;BMP180;7766;51.534;6.722;2023-04-06T00:27:42;101191.00;;;5.71
15333;BMP180;7766;51.534;6.722;2023-04-06T00:28:43;101185.22;;;5.68
15333;BMP180;7766;51.534;6.722;2023-04-06T00:29:45;101182.78;;;5.67
15333;BMP180;7766;51.534;6.722;2023-04-06T00:30:46;101184.44;;;5.68
15333;BMP180;7766;51.534;6.722;2023-04-06T00:31:47;101173.03;;;5.69
15333;BMP180;7766;51.534;6.722;2023-04-06T00:32:48;101179.22;;;5.68
15333;BMP180;7766;51.534;6.722;2023-04-06T00:33:49;101177.97;;;5.71
15333;BMP180;7766;51.534;6.722;2023-04-06T00:34:50;101183.19;;;5.71
15333;BMP180;7766;51.534;6.722;2023-04-06T00:35:51;101175.91;;;5.66
15333;BMP180;7766;51.534;6.722;2023-04-06T00:36:52;101169.88;;;5.65
15333;BMP180;7766;51.534;6.722;2023-04-06T00:37:53;101179.63;;;5.63
15333;BMP180;7766;51.534;6.722;2023-04-06T00:38:54;101172.88;;;5.61
15333;BMP180;7766;51.534;6.722;2023-04-06T00:39:55;101165.22;;;5.59
15333;BMP180;7766;51.534;6.722;2023-04-06T00:40:56;101166.31;;;5.57
15333;BMP180;7766;51.534;6.722;2023-04-06T00:41:57;101180.41;;;5.54
15333;BMP180;7766;51.534;6.722;2023-04-06T00:42:58;101178.63;;;5.55
15333;BMP180;7766;51.534;6.722;2023-04-06T00:44:00;101176.59;;;5.49
15333;BMP180;7766;51.534;6.722;2023-04-06T00:45:01;101168.38;;;5.44
15333;BMP180;7766;51.534;6.722;2023-04-06T00:46:02;101167.69;;;5.42
15333;BMP180;7766;51.534;6.722;2023-04-06T00:47:03;101167.13;;;5.39
15333;BMP180;7766;51.534;6.722;2023-04-06T00:48:06;101176.75;;;5.38
15333;BMP180;7766;51.534;6.722;2023-04-06T00:49:07;101172.34;;;5.39
15333;BMP180;7766;51.534;6.722;2023-04-06T00:50:08;101164.41;;;5.40
15333;BMP180;7766;51.534;6.722;2023-04-06T00:51:09;101162.63;;;5.41
15333;BMP180;7766;51.534;6.722;2023-04-06T00:52:10;101163.03;;;5.46
15333;BMP180;7766;51.534;6.722;2023-04-06T00:53:11;101167.97;;;5.49
15333;BMP180;7766;51.534;6.722;2023-04-06T00:54:12;101168.75;;;5.49
15333;BMP180;7766;51.534;6.722;2023-04-06T00:55:13;101163.84;;;5.46
15333;BMP180;7766;51.534;6.722;2023-04-06T00:56:15;101155.88;;;5.48
15333;BMP180;7766;51.534;6.722;2023-04-06T00:57:16;101157.00;;;5.45
15333;BMP180;7766;51.534;6.722;2023-04-06T00:58:17;101158.91;;;5.43
15333;BMP180;7766;51.534;6.722;2023-04-06T00:59:18;101162.34;;;5.44
15333;BMP180;7766;51.534;6.722;2023-04-06T01:00:19;101158.09;;;5.43
15333;BMP180;7766;51.534;6.722;2023-04-06T01:01:20;101155.34;;;5.44
15333;BMP180;7766;51.534;6.722;2023-04-06T01:02:21;101149.34;;;5.44
15333;BMP180;7766;51.534;6.722;2023-04-06T01:03:22;101151.22;;;5.42
15333;BMP180;7766;51.534;6.722;2023-04-06T01:04:23;101148.50;;;5.43
15333;BMP180;7766;51.534;6.722;2023-04-06T01:05:24;101146.28;;;5.39
15333;BMP180;7766;51.534;6.722;2023-04-06T01:06:25;101145.50;;;5.38
15333;BMP180;7766;51.534;6.722;2023-04-06T01:07:26;101148.38;;;5.36
15333;BMP180;7766;51.534;6.722;2023-04-06T01:08:27;101151.25;;;5.33
15333;BMP180;7766;51.534;6.722;2023-04-06T01:09:29;101143.03;;;5.28
15333;BMP180;7766;51.534;6.722;2023-04-06T01:10:30;101147.13;;;5.21
15333;BMP180;7766;51.534;6.722;2023-04-06T01:11:32;101142.75;;;5.22
15333;BMP180;7766;51.534;6.722;2023-04-06T01:12:33;101145.22;;;5.23
15333;BMP180;7766;51.534;6.722;2023-04-06T01:13:34;101140.31;;;5.20
15333;BMP180;7766;51.534;6.722;2023-04-06T01:14:35;101140.31;;;5.20
15333;BMP180;7766;51.534;6.722;2023-04-06T01:15:36;101143.97;;;5.18
15333;BMP180;7766;51.534;6.722;2023-04-06T01:16:40;101139.88;;;5.15
15333;BMP180;7766;51.534;6.722;2023-04-06T01:17:41;101142.47;;;5.15
15333;BMP180;7766;51.534;6.722;2023-04-06T01:18:42;101140.13;;;5.12
15333;BMP180;7766;51.534;6.722;2023-04-06T01:19:43;101135.38;;;5.17
15333;BMP180;7766;51.534;6.722;2023-04-06T01:20:45;101138.66;;;5.19
15333;BMP180;7766;51.534;6.722;2023-04-06T01:21:46;101138.50;;;5.21
15333;BMP180;7766;51.534;6.722;2023-04-06T01:22:47;101136.72;;;5.21
15333;BMP180;7766;51.534;6.722;2023-04-06T01:23:48;101141.50;;;5.25
15333;BMP180;7766;51.534;6.722;2023-04-06T01:24:49;101137.81;;;5.28
15333;BMP180;7766;51.534;6.722;2023-04-06T01:25:50;101141.38;;;5.27
15333;BMP180;7766;51.534;6.722;2023-04-06T01:26:50;101139.72;;;5.26
15333;BMP180;7766;51.534;6.722;2023-04-06T01:27:51;101138.38;;;5.22
15333;BMP180;7766;51.534;6.722;2023-04-06T01:28:52;101133.44;;;5.19
15333;BMP180;7766;51.534;6.722;2023-04-06T01:29:53;101136.72;;;5.21
15333;BMP180;7766;51.534;6.722;2023-04-06T01:30:54;101133.97;;;5.13
15333;BMP180;7766;51.534;6.722;2023-04-06T01:31:55;101141.13;;;5.11
15333;BMP180;7766;51.534;6.722;2023-04-06T01:32:56;101136.44;;;5.06
15333;BMP180;7766;51.534;6.722;2023-04-06T01:33:57;101131.25;;;5.06
15333;BMP180;7766;51.534;6.722;2023-04-06T01:34:58;101134.69;;;5.06
15333;BMP180;7766;51.534;6.722;2023-04-06T01:35:59;101135.06;;;5.02
15333;BMP180;7766;51.534;6.722;2023-04-06T01:37:00;101135.38;;;4.99
15333;BMP180;7766;51.534;6.722;2023-04-06T01:38:01;101132.06;;;4.97
15333;BMP180;7766;51.534;6.722;2023-04-06T01:39:02;101134.94;;;4.94
15333;BMP180;7766;51.534;6.722;2023-04-06T01:40:04;101132.63;;;4.91
15333;BMP180;7766;51.534;6.722;2023-04-06T01:41:05;101127.69;;;4.88
15333;BMP180;7766;51.534;6.722;2023-04-06T01:42:06;101128.47;;;4.89
15333;BMP180;7766;51.534;6.722;2023-04-06T01:43:07;101124.81;;;4.91
15333;BMP180;7766;51.534;6.722;2023-04-06T01:44:08;101126.16;;;4.95
15333;BMP180;7766;51.534;6.722;2023-04-06T01:45:09;101120.97;;;4.95
15333;BMP180;7766;51.534;6.722;2023-04-06T01:46:10;101124.66;;;4.92
15333;BMP180;7766;51.534;6.722;2023-04-06T01:47:11;101116.19;;;4.91
15333;BMP180;7766;51.534;6.722;2023-04-06T01:48:12;101123.84;;;4.92
15333;BMP180;7766;51.534;6.722;2023-04-06T01:49:13;101122.63;;;4.96
15333;BMP180;7766;51.534;6.722;2023-04-06T01:50:14;101110.69;;;4.93
15333;BMP180;7766;51.534;6.722;2023-04-06T01:51:16;101111.50;;;4.94
15333;BMP180;7766;51.534;6.722;2023-04-06T01:52:17;101109.88;;;4.93
15333;BMP180;7766;51.534;6.722;2023-04-06T01:53:18;101109.03;;;4.92
15333;BMP180;7766;51.534;6.722;2023-04-06T01:54:19;101115.63;;;4.96
15333;BMP180;7766;51.534;6.722;2023-04-06T01:55:20;101110.81;;;4.92
15333;BMP180;7766;51.534;6.722;2023-04-06T01:56:21;101108.63;;;4.97
15333;BMP180;7766;51.534;6.722;2023-04-06T01:57:22;101111.09;;;4.98
15333;BMP180;7766;51.534;6.722;2023-04-06T01:58:23;101113.84;;;4.97
15333;BMP180;7766;51.534;6.722;2023-04-06T01:59:24;101118.09;;;4.98
15333;BMP180;7766;51.534;6.722;2023-04-06T02:00:25;101112.63;;;5.01
15333;BMP180;7766;51.534;6.722;2023-04-06T02:01:26;101112.63;;;5.01
15333;BMP180;7766;51.534;6.722;2023-04-06T02:02:27;101114.38;;;5.00
15333;BMP180;7766;51.534;6.722;2023-04-06T02:03:28;101109.34;;;4.99
15333;BMP180;7766;51.534;6.722;2023-04-06T02:04:29;101116.31;;;4.98
15333;BMP180;7766;51.534;6.722;2023-04-06T02:05:32;101118.09;;;4.98
15333;BMP180;7766;51.534;6.722;2023-04-06T02:06:38;101112.88;;;4.98
15333;BMP180;7766;51.534;6.722;2023-04-06T02:07:39;101106.16;;;4.95
15333;BMP180;7766;51.534;6.722;2023-04-06T02:08:40;101107.94;;;4.95
15333;BMP180;7766;51.534;6.722;2023-04-06T02:09:41;101107.53;;;4.90
15333;BMP180;7766;51.534;6.722;2023-04-06T02:10:42;101118.78;;;4.91
15333;BMP180;7766;51.534;6.722;2023-04-06T02:11:43;101105.75;;;4.91
15333;BMP180;7766;51.534;6.722;2023-04-06T02:12:44;101109.03;;;4.92
15333;BMP180;7766;51.534;6.722;2023-04-06T02:13:45;101113.16;;;4.86
15333;BMP180;7766;51.534;6.722;2023-04-06T02:14:46;101112.88;;;4.89
15333;BMP180;7766;51.534;6.722;2023-04-06T02:15:47;101108.75;;;4.86
15333;BMP180;7766;51.534;6.722;2023-04-06T02:16:48;101105.38;;;4.86
15333;BMP180;7766;51.534;6.722;2023-04-06T02:17:49;101111.09;;;4.89
15333;BMP180;7766;51.534;6.722;2023-04-06T02:18:50;101115.63;;;4.87
15333;BMP180;7766;51.534;6.722;2023-04-06T02:19:51;101107.13;;;4.85
15333;BMP180;7766;51.534;6.722;2023-04-06T02:20:52;101102.88;;;4.84
15333;BMP180;7766;51.534;6.722;2023-04-06T02:21:53;101106.31;;;4.85
15333;BMP180;7766;51.534;6.722;2023-04-06T02:22:56;101111.63;;;4.83
15333;BMP180;7766;51.534;6.722;2023-04-06T02:23:57;101106.84;;;4.79
15333;BMP180;7766;51.534;6.722;2023-04-06T02:24:58;101104.25;;;4.79
15333;BMP180;7766;51.534;6.722;2023-04-06T02:25:59;101104.81;;;4.82
15333;BMP180;7766;51.534;6.722;2023-04-06T02:27:00;101095.59;;;4.78
15333;BMP180;7766;51.534;6.722;2023-04-06T02:28:01;101105.59;;;4.74
15333;BMP180;7766;51.534;6.722;2023-04-06T02:29:02;101099.19;;;4.77
15333;BMP180;7766;51.534;6.722;2023-04-06T02:30:04;101107.66;;;4.79
15333;BMP180;7766;51.534;6.722;2023-04-06T02:31:05;101107.66;;;4.79
15333;BMP180;7766;51.534;6.722;2023-04-06T02:32:06;101103.28;;;4.80
15333;BMP180;7766;51.534;6.722;2023-04-06T02:33:07;101105.06;;;4.79
15333;BMP180;7766;51.534;6.722;2023-04-06T02:34:08;101101.53;;;4.80
15333;BMP180;7766;51.534;6.722;2023-04-06T02:35:11;101105.91;;;4.80
15333;BMP180;7766;51.534;6.722;2023-04-06T02:36:12;101101.78;;;4.77
15333;BMP180;7766;51.534;6.722;2023-04-06T02:37:13;101103.56;;;4.77
15333;BMP180;7766;51.534;6.722;2023-04-06T02:38:15;101101.09;;;4.75
15333;BMP180;7766;51.534;6.722;2023-04-06T02:39:16;101101.63;;;4.79
15333;BMP180;7766;51.534;6.722;2023-04-06T02:40:17;101102.47;;;4.79
15333;BMP180;7766;51.534;6.722;2023-04-06T02:41:18;101101.63;;;4.79
15333;BMP180;7766;51.534;6.722;2023-04-06T02:42:20;101101.78;;;4.77
15333;BMP180;7766;51.534;6.722;2023-04-06T02:43:21;101092.31;;;4.76
15333;BMP180;7766;51.534;6.722;2023-04-06T02:44:22;101102.59;;;4.78
15333;BMP180;7766;51.534;6.722;2023-04-06T02:45:23;101104.66;;;4.75
15333;BMP180;7766;51.534;6.722;2023-04-06T02:46:24;101097.81;;;4.74
15333;BMP180;7766;51.534;6.722;2023-04-06T02:47:25;101096.13;;;4.73
15333;BMP180;7766;51.534;6.722;2023-04-06T02:48:26;101101.66;;;4.70
15333;BMP180;7766;51.534;6.722;2023-04-06T02:49:27;101099.72;;;4.72
15333;BMP180;7766;51.534;6.722;2023-04-06T02:50:28;101099.84;;;4.70
15333;BMP180;7766;51.534;6.722;2023-04-06T02:51:29;101105.19;;;4.69
15333;BMP180;7766;51.534;6.722;2023-04-06T02:52:30;101090.69;;;4.66
15333;BMP180;7766;51.534;6.722;2023-04-06T02:53:31;101090.69;;;4.66
15333;BMP180;7766;51.534;6.722;2023-04-06T02:54:32;101093.28;;;4.66
15333;BMP180;7766;51.534;6.722;2023-04-06T02:55:33;101094.63;;;4.70
15333;BMP180;7766;51.534;6.722;2023-04-06T02:56:34;101095.06;;;4.66
15333;BMP180;7766;51.534;6.722;2023-04-06T02:57:35;101095.63;;;4.69
15333;BMP180;7766;51.534;6.722;2023-04-06T02:58:36;101092.34;;;4.67
15333;BMP180;7766;51.534;6.722;2023-04-06T02:59:37;101097.25;;;4.70
15333;BMP180;7766;51.534;6.722;2023-04-06T03:00:38;101091.91;;;4.72
15333;BMP180;7766;51.534;6.722;2023-04-06T03:01:39;101095.63;;;4.69
15333;BMP180;7766;51.534;6.722;2023-04-06T03:02:40;101089.44;;;4.70
15333;BMP180;7766;51.534;6.722;2023-04-06T03:03:41;101087.94;;;4.68
15333;BMP180;7766;51.534;6.722;2023-04-06T03:04:43;101088.50;;;4.71
15333;BMP180;7766;51.534;6.722;2023-04-06T03:05:44;101095.06;;;4.66
15333;BMP180;7766;51.534;6.722;2023-04-06T03:06:45;101091.34;;;4.68
15333;BMP180;7766;51.534;6.722;2023-04-06T03:07:46;101085.06;;;4.71
15333;BMP180;7766;51.534;6.722;2023-04-06T03:08:47;101092.34;;;4.67
15333;BMP180;7766;51.534;6.722;2023-04-06T03:09:48;101081.09;;;4.67
15333;BMP180;7766;51.534;6.722;2023-04-06T03:10:49;101094.09;;;4.67
15333;BMP180;7766;51.534;6.722;2023-04-06T03:11:50;101089.59;;;4.69
15333;BMP180;7766;51.534;6.722;2023-04-06T03:12:51;101092.44;;;4.66
15333;BMP180;7766;51.534;6.722;2023-04-06T03:13:52;101091.63;;;4.65
15333;BMP180;7766;51.534;6.722;2023-04-06T03:14:53;101091.50;;;4.67
15333;BMP180;7766;51.534;6.722;2023-04-06T03:15:53;101089.03;;;4.65
15333;BMP180;7766;51.534;6.722;2023-04-06T03:16:54;101086.69;;;4.62
15333;BMP180;7766;51.534;6.722;2023-04-06T03:17:56;101088.19;;;4.65
15333;BMP180;7766;51.534;6.722;2023-04-06T03:18:57;101092.59;;;4.64
15333;BMP180;7766;51.534;6.722;2023-04-06T03:19:58;101088.19;;;4.65
15333;BMP180;7766;51.534;6.722;2023-04-06T03:20:59;101090.00;;;4.64
15333;BMP180;7766;51.534;6.722;2023-04-06T03:22:03;101092.59;;;4.64
15333;BMP180;7766;51.534;6.722;2023-04-06T03:23:04;101088.19;;;4.65
15333;BMP180;7766;51.534;6.722;2023-04-06T03:24:05;101087.81;;;4.69
15333;BMP180;7766;51.534;6.722;2023-04-06T03:25:07;101082.47;;;4.71
15333;BMP180;7766;51.534;6.722;2023-04-06T03:26:08;101084.22;;;4.70
15333;BMP180;7766;51.534;6.722;2023-04-06T03:27:09;101089.72;;;4.67
15333;BMP180;7766;51.534;6.722;2023-04-06T03:28:10;101081.94;;;4.67
15333;BMP180;7766;51.534;6.722;2023-04-06T03:29:11;101090.53;;;4.68
15333;BMP180;7766;51.534;6.722;2023-04-06T03:30:12;101084.38;;;4.69
15333;BMP180;7766;51.534;6.722;2023-04-06T03:31:13;101085.47;;;4.66
15333;BMP180;7766;51.534;6.722;2023-04-06T03:32:14;101086.03;;;4.70
15333;BMP180;7766;51.534;6.722;2023-04-06T03:33:15;101091.25;;;4.70
15333;BMP180;7766;51.534;6.722;2023-04-06T03:34:16;101085.06;;;4.71
15333;BMP180;7766;51.534;6.722;2023-04-06T03:35:17;101087.94;;;4.68
15333;BMP180;7766;51.534;6.722;2023-04-06T03:36:18;101085.22;;;4.69
15333;BMP180;7766;51.534;6.722;2023-04-06T03:37:19;101084.38;;;4.69
15333;BMP180;7766;51.534;6.722;2023-04-06T03:38:20;101086.56;;;4.64
15333;BMP180;7766;51.534;6.722;2023-04-06T03:39:21;101081.94;;;4.67
15333;BMP180;7766;51.534;6.722;2023-04-06T03:40:22;101082.03;;;4.66
15333;BMP180;7766;51.534;6.722;2023-04-06T03:41:23;101087.94;;;4.68
15333;BMP180;7766;51.534;6.722;2023-04-06T03:42:24;101084.38;;;4.69
15333;BMP180;7766;51.534;6.722;2023-04-06T03:43:25;101089.31;;;4.72
15333;BMP180;7766;51.534;6.722;2023-04-06T03:44:26;101087.38;;;4.74
15333;BMP180;7766;51.534;6.722;2023-04-06T03:45:27;101088.34;;;4.73
15333;BMP180;7766;51.534;6.722;2023-04-06T03:46:28;101087.38;;;4.74
15333;BMP180;7766;51.534;6.722;2023-04-06T03:47:29;101082.88;;;4.75
15333;BMP180;7766;51.534;6.722;2023-04-06T03:48:30;101087.13;;;4.76
15333;BMP180;7766;51.534;6.722;2023-04-06T03:49:31;101088.22;;;4.74
15333;BMP180;7766;51.534;6.722;2023-04-06T03:50:32;101074.25;;;4.75
15333;BMP180;7766;51.534;6.722;2023-04-06T03:51:33;101077.66;;;4.75
15333;BMP180;7766;51.534;6.722;2023-04-06T03:52:35;101083.28;;;4.71
15333;BMP180;7766;51.534;6.722;2023-04-06T03:53:36;101074.25;;;4.75
15333;BMP180;7766;51.534;6.722;2023-04-06T03:54:37;101073.69;;;4.72
15333;BMP180;7766;51.534;6.722;2023-04-06T03:55:38;101085.72;;;4.73
15333;BMP180;7766;51.534;6.722;2023-04-06T03:56:40;101076.31;;;4.72
15333;BMP180;7766;51.534;6.722;2023-04-06T03:57:41;101073.81;;;4.70
15333;BMP180;7766;51.534;6.722;2023-04-06T03:58:42;101073.03;;;4.70
15333;BMP180;7766;51.534;6.722;2023-04-06T03:59:45;101080.84;;;4.70
15333;BMP180;7766;51.534;6.722;2023-04-06T04:00:46;101078.34;;;4.68
15333;BMP180;7766;51.534;6.722;2023-04-06T04:01:47;101077.78;;;4.65
15333;BMP180;7766;51.534;6.722;2023-04-06T04:02:48;101081.63;;;4.61
15333;BMP180;7766;51.534;6.722;2023-04-06T04:03:49;101075.19;;;4.56
15333;BMP180;7766;51.534;6.722;2023-04-06T04:04:50;101076.41;;;4.52
15333;BMP180;7766;51.534;6.722;2023-04-06T04:05:51;101073.94;;;4.50
15333;BMP180;7766;51.534;6.722;2023-04-06T04:06:52;101074.22;;;4.47
15333;BMP180;7766;51.534;6.722;2023-04-06T04:07:53;101078.59;;;4.47
15333;BMP180;7766;51.534;6.722;2023-04-06T04:08:54;101075.31;;;4.45
15333;BMP180;7766;51.534;6.722;2023-04-06T04:09:55;101077.75;;;4.46
15333;BMP180;7766;51.534;6.722;2023-04-06T04:10:55;101077.75;;;4.46
15333;BMP180;7766;51.534;6.722;2023-04-06T04:11:56;101076.25;;;4.44
15333;BMP180;7766;51.534;6.722;2023-04-06T04:12:57;101080.53;;;4.45
15333;BMP180;7766;51.534;6.722;2023-04-06T04:13:58;101073.25;;;4.39
15333;BMP180;7766;51.534;6.722;2023-04-06T04:14:59;101078.88;;;4.35
15333;BMP180;7766;51.534;6.722;2023-04-06T04:16:00;101089.13;;;4.36
15333;BMP180;7766;51.534;6.722;2023-04-06T04:17:01;101076.00;;;4.38
15333;BMP180;7766;51.534;6.722;2023-04-06T04:18:02;101079.69;;;4.35
15333;BMP180;7766;51.534;6.722;2023-04-06T04:19:03;101074.88;;;4.31
15333;BMP180;7766;51.534;6.722;2023-04-06T04:20:05;101080.34;;;4.28
15333;BMP180;7766;51.534;6.722;2023-04-06T04:21:05;101075.84;;;4.30
15333;BMP180;7766;51.534;6.722;2023-04-06T04:22:07;101083.75;;;4.28
15333;BMP180;7766;51.534;6.722;2023-04-06T04:23:08;101078.81;;;4.26
15333;BMP180;7766;51.534;6.722;2023-04-06T04:24:09;101073.09;;;4.22
15333;BMP180;7766;51.534;6.722;2023-04-06T04:25:10;101073.09;;;4.22
15333;BMP180;7766;51.534;6.722;2023-04-06T04:26:11;101081.56;;;4.24
15333;BMP180;7766;51.534;6.722;2023-04-06T04:27:12;101078.41;;;4.21
15333;BMP180;7766;51.534;6.722;2023-04-06T04:28:13;101074.88;;;4.22
15333;BMP180;7766;51.534;6.722;2023-04-06T04:29:14;101080.91;;;4.22
15333;BMP180;7766;51.534;6.722;2023-04-06T04:30:16;101078.28;;;4.22
15333;BMP180;7766;51.534;6.722;2023-04-06T04:31:17;101084.44;;;4.21
15333;BMP180;7766;51.534;6.722;2023-04-06T04:32:18;101079.91;;;4.23
15333;BMP180;7766;51.534;6.722;2023-04-06T04:33:19;101076.38;;;4.24
15333;BMP180;7766;51.534;6.722;2023-04-06T04:34:20;101077.06;;;4.26
15333;BMP180;7766;51.534;6.722;2023-04-06T04:35:21;101084.59;;;4.29
15333;BMP180;7766;51.534;6.722;2023-04-06T04:36:22;101083.50;;;4.31
15333;BMP180;7766;51.534;6.722;2023-04-06T04:37:24;101079.13;;;4.32
15333;BMP180;7766;51.534;6.722;2023-04-06T04:38:25;101075.28;;;4.36
15333;BMP180;7766;51.534;6.722;2023-04-06T04:39:26;101081.47;;;4.35
15333;BMP180;7766;51.534;6.722;2023-04-06T04:40:27;101077.78;;;4.37
15333;BMP180;7766;51.534;6.722;2023-04-06T04:41:28;101073.66;;;4.35
15333;BMP180;7766;51.534;6.722;2023-04-06T04:42:29;101071.75;;;4.37
15333;BMP180;7766;51.534;6.722;2023-04-06T04:43:30;101083.81;;;4.38
15333;BMP180;7766;51.534;6.722;2023-04-06T04:44:30;101081.31;;;4.36
15333;BMP180;7766;51.534;6.722;2023-04-06T04:45:31;101078.72;;;4.36
15333;BMP180;7766;51.534;6.722;2023-04-06T04:46:32;101085.69;;;4.36
15333;BMP180;7766;51.534;6.722;2023-04-06T04:47:33;101083.81;;;4.38
15333;BMP180;7766;51.534;6.722;2023-04-06T04:48:35;101074.34;;;4.37
15333;BMP180;7766;51.534;6.722;2023-04-06T04:49:36;101073.50;;;4.36
15333;BMP180;7766;51.534;6.722;2023-04-06T04:50:37;101073.41;;;4.38
15333;BMP180;7766;51.534;6.722;2023-04-06T04:51:38;101069.28;;;4.35
15333;BMP180;7766;51.534;6.722;2023-04-06T04:52:41;101075.28;;;4.36
15333;BMP180;7766;51.534;6.722;2023-04-06T04:53:42;101074.50;;;4.35
15333;BMP180;7766;51.534;6.722;2023-04-06T04:54:43;101071.59;;;4.29
15333;BMP180;7766;51.534;6.722;2023-04-06T04:55:44;101070.38;;;4.33
15333;BMP180;7766;51.534;6.722;2023-04-06T04:56:45;101069.00;;;4.29
15333;BMP180;7766;51.534;6.722;2023-04-06T04:57:46;101071.59;;;4.29
15333;BMP180;7766;51.534;6.722;2023-04-06T04:58:47;101069.00;;;4.29
15333;BMP180;7766;51.534;6.722;2023-04-06T04:59:48;101066.38;;;4.29
15333;BMP180;7766;51.534;6.722;2023-04-06T05:00:50;101072.97;;;4.33
15333;BMP180;7766;51.534;6.722;2023-04-06T05:01:51;101072.00;;;4.34
15333;BMP180;7766;51.534;6.722;2023-04-06T05:02:52;101070.09;;;4.36
15333;BMP180;7766;51.534;6.722;2023-04-06T05:03:53;101068.19;;;4.38
15333;BMP180;7766;51.534;6.722;2023-04-06T05:04:54;101071.75;;;4.37
15333;BMP180;7766;51.534;6.722;2023-04-06T05:05:55;101068.31;;;4.36
15333;BMP180;7766;51.534;6.722;2023-04-06T05:07:06;101073.41;;;4.38
15333;BMP180;7766;51.534;6.722;2023-04-06T05:08:08;101073.81;;;4.43
15333;BMP180;7766;51.534;6.722;2023-04-06T05:09:08;101074.50;;;4.44
15333;BMP180;7766;51.534;6.722;2023-04-06T05:10:09;101069.97;;;4.46
15333;BMP180;7766;51.534;6.722;2023-04-06T05:11:11;101068.75;;;4.50
15333;BMP180;7766;51.534;6.722;2023-04-06T05:12:12;101071.19;;;4.52
15333;BMP180;7766;51.534;6.722;2023-04-06T05:13:13;101070.81;;;4.56
15333;BMP180;7766;51.534;6.722;2023-04-06T05:14:14;101069.84;;;4.57
15333;BMP180;7766;51.534;6.722;2023-04-06T05:15:15;101073.81;;;4.61
15333;BMP180;7766;51.534;6.722;2023-04-06T05:16:17;101072.88;;;4.62
15333;BMP180;7766;51.534;6.722;2023-04-06T05:17:18;101079.59;;;4.64
15333;BMP180;7766;51.534;6.722;2023-04-06T05:18:19;101079.19;;;4.69
15333;BMP180;7766;51.534;6.722;2023-04-06T05:19:20;101073.56;;;4.73
15333;BMP180;7766;51.534;6.722;2023-04-06T05:20:21;101072.34;;;4.77
15333;BMP180;7766;51.534;6.722;2023-04-06T05:21:22;101075.50;;;4.80
15333;BMP180;7766;51.534;6.722;2023-04-06T05:22:23;101069.97;;;4.83
15333;BMP180;7766;51.534;6.722;2023-04-06T05:23:23;101072.31;;;4.86
15333;BMP180;7766;51.534;6.722;2023-04-06T05:24:24;101072.75;;;4.91
15333;BMP180;7766;51.534;6.722;2023-04-06T05:25:26;101071.50;;;4.95
15333;BMP180;7766;51.534;6.722;2023-04-06T05:26:27;101079.19;;;4.96
15333;BMP180;7766;51.534;6.722;2023-04-06T05:27:28;101074.78;;;4.97
15333;BMP180;7766;51.534;6.722;2023-04-06T05:28:29;101074.50;;;5.00
15333;BMP180;7766;51.534;6.722;2023-04-06T05:29:31;101076.16;;;5.01
15333;BMP180;7766;51.534;6.722;2023-04-06T05:30:32;101066.41;;;5.03
15333;BMP180;7766;51.534;6.722;2023-04-06T05:31:33;101062.88;;;5.04
15333;BMP180;7766;51.534;6.722;2023-04-06T05:32:34;101067.91;;;5.05
15333;BMP180;7766;51.534;6.722;2023-04-06T05:33:35;101065.88;;;5.08
15333;BMP180;7766;51.534;6.722;2023-04-06T05:34:37;101067.09;;;5.14
15333;BMP180;7766;51.534;6.722;2023-04-06T05:35:38;101079.28;;;5.13
15333;BMP180;7766;51.534;6.722;2023-04-06T05:36:39;101081.34;;;5.19
15333;BMP180;7766;51.534;6.722;2023-04-06T05:37:42;101072.28;;;5.23
15333;BMP180;7766;51.534;6.722;2023-04-06T05:38:43;101074.75;;;5.24
15333;BMP180;7766;51.534;6.722;2023-04-06T05:39:44;101076.66;;;5.32
15333;BMP180;7766;51.534;6.722;2023-04-06T05:40:45;101066.91;;;5.34
15333;BMP180;7766;51.534;6.722;2023-04-06T05:41:46;101066.63;;;5.37
15333;BMP180;7766;51.534;6.722;2023-04-06T05:42:47;101063.47;;;5.42
15333;BMP180;7766;51.534;6.722;2023-04-06T05:43:50;101068.69;;;5.42
15333;BMP180;7766;51.534;6.722;2023-04-06T05:44:50;101064.28;;;5.43
15333;BMP180;7766;51.534;6.722;2023-04-06T05:45:51;101071.16;;;5.44
15333;BMP180;7766;51.534;6.722;2023-04-06T05:46:52;101073.47;;;5.47
15333;BMP180;7766;51.534;6.722;2023-04-06T05:47:53;101071.00;;;5.45
15333;BMP180;7766;51.534;6.722;2023-04-06T05:48:54;101074.56;;;5.44
15333;BMP180;7766;51.534;6.722;2023-04-06T05:49:55;101065.38;;;5.50
15333;BMP180;7766;51.534;6.722;2023-04-06T05:50:56;101068.09;;;5.57
15333;BMP180;7766;51.534;6.722;2023-04-06T05:51:57;101077.16;;;5.63
15333;BMP180;7766;51.534;6.722;2023-04-06T05:52:58;101070.16;;;5.63
15333;BMP180;7766;51.534;6.722;2023-04-06T05:53:59;101068.09;;;5.67
15333;BMP180;7766;51.534;6.722;2023-04-06T05:55:00;101071.09;;;5.71
15333;BMP180;7766;51.534;6.722;2023-04-06T05:56:02;101067.25;;;5.75
15333;BMP180;7766;51.534;6.722;2023-04-06T05:57:03;101068.88;;;5.76